createdAt,value
2017-12-19T00:00:53.869Z,75.70
2017-12-19T00:03:20.776Z,61.28
2017-12-19T00:05:47.700Z,76.37
2017-12-19T00:08:14.620Z,61.88
2017-12-19T00:10:41.584Z,59.53
2017-12-19T00:13:08.498Z,70.40
2017-12-19T00:15:35.416Z,61.15
2017-12-19T00:18:02.343Z,62.10
2017-12-19T00:20:29.257Z,76.53
2017-12-19T00:22:56.184Z,67.47
2017-12-19T00:25:23.100Z,74.57
2017-12-19T00:27:50.025Z,72.72
2017-12-19T00:30:18.710Z,74.12
2017-12-19T00:32:46.499Z,70.87
2017-12-19T00:35:13.409Z,72.75
2017-12-19T00:40:13.603Z,75.03
2017-12-19T00:42:40.520Z,72.90
2017-12-19T00:45:07.441Z,64.35
2017-12-19T00:47:34.369Z,114.88
2017-12-19T00:50:01.273Z,77.60
2017-12-19T00:52:28.196Z,73.20
2017-12-19T00:54:55.104Z,72.37
2017-12-19T00:57:22.033Z,65.45
2017-12-19T00:59:48.959Z,62.70
2017-12-19T01:02:15.891Z,73.70
2017-12-19T01:04:42.805Z,68.22
2017-12-19T01:07:10.509Z,63.30
2017-12-19T01:09:37.421Z,57.40
2017-12-19T01:12:04.351Z,68.93
2017-12-19T01:14:31.261Z,59.63
2017-12-19T01:16:58.209Z,59.42
2017-12-19T01:19:25.129Z,62.88
2017-12-19T01:21:52.079Z,66.22
2017-12-19T01:24:18.988Z,66.70
2017-12-19T01:26:45.912Z,59.85
2017-12-19T01:29:12.821Z,70.70
2017-12-19T01:31:39.753Z,67.40
2017-12-19T01:34:06.663Z,69.40
2017-12-19T01:36:33.592Z,84.32
2017-12-19T01:39:00.513Z,71.47
2017-12-19T01:41:27.469Z,59.15
2017-12-19T01:43:54.385Z,60.15
2017-12-19T01:46:21.305Z,65.72
2017-12-19T01:48:48.243Z,68.22
2017-12-19T01:51:15.149Z,68.53
2017-12-19T01:53:42.064Z,60.50
2017-12-19T01:56:08.981Z,67.30
2017-12-19T01:58:36.654Z,73.50
2017-12-19T02:01:06.725Z,57.08
2017-12-19T02:03:33.653Z,59.53
2017-12-19T02:06:02.333Z,75.07
2017-12-19T02:08:30.033Z,52.15
2017-12-19T02:10:56.956Z,58.33
2017-12-19T02:13:24.681Z,55.15
2017-12-19T02:15:51.605Z,45.22
2017-12-19T02:18:18.512Z,60.30
2017-12-19T02:20:46.197Z,84.87
2017-12-19T02:23:13.121Z,55.85
2017-12-19T02:25:40.801Z,61.22
2017-12-19T02:28:07.732Z,54.97
2017-12-19T02:30:34.640Z,49.25
2017-12-19T02:33:01.568Z,57.88
2017-12-19T02:35:28.484Z,60.58
2017-12-19T02:37:55.400Z,68.15
2017-12-19T02:40:23.074Z,55.00
2017-12-19T02:43:01.913Z,57.22
2017-12-19T02:45:28.817Z,67.90
2017-12-19T02:47:56.532Z,58.83
2017-12-19T02:50:23.439Z,56.50
2017-12-19T02:52:52.040Z,72.60
2017-12-19T02:55:18.946Z,55.38
2017-12-19T02:57:45.860Z,70.87
2017-12-19T03:00:12.763Z,56.30
2017-12-19T03:02:39.663Z,56.58
2017-12-19T03:05:06.604Z,54.60
2017-12-19T03:07:33.522Z,57.25
2017-12-19T03:10:00.456Z,63.60
2017-12-19T03:12:27.365Z,53.15
2017-12-19T03:14:55.080Z,58.47
2017-12-19T03:17:21.997Z,57.22
2017-12-19T03:19:48.926Z,49.78
2017-12-19T03:22:16.606Z,58.78
2017-12-19T03:24:43.533Z,46.42
2017-12-19T03:27:11.240Z,63.95
2017-12-19T03:29:38.170Z,55.20
2017-12-19T03:32:05.089Z,55.10
2017-12-19T03:34:32.019Z,64.00
2017-12-19T03:37:00.707Z,57.55
2017-12-19T03:39:28.393Z,53.65
2017-12-19T03:41:55.299Z,48.13
2017-12-19T03:44:22.224Z,49.28
2017-12-19T03:46:49.125Z,42.58
2017-12-19T03:49:16.044Z,40.70
2017-12-19T03:51:43.712Z,51.28
2017-12-19T03:54:11.406Z,44.03
2017-12-19T03:56:38.319Z,41.42
2017-12-19T03:59:06.016Z,49.33
2017-12-19T04:01:32.933Z,49.83
2017-12-19T04:03:59.882Z,52.00
2017-12-19T04:06:26.780Z,48.80
2017-12-19T04:08:53.695Z,45.55
2017-12-19T04:11:20.617Z,40.85
2017-12-19T04:13:47.525Z,28.85
2017-12-19T04:16:14.452Z,57.97
2017-12-19T04:18:41.383Z,33.05
2017-12-19T04:21:08.322Z,44.70
2017-12-19T04:23:35.242Z,44.03
2017-12-19T04:26:02.208Z,38.28
2017-12-19T04:28:29.881Z,33.00
2017-12-19T04:30:56.793Z,38.30
2017-12-19T04:33:23.725Z,30.80
2017-12-19T04:35:50.634Z,31.02
2017-12-19T04:38:18.329Z,33.03
2017-12-19T04:40:45.235Z,48.70
2017-12-19T04:43:12.907Z,35.33
2017-12-19T04:45:39.832Z,32.22
2017-12-19T04:48:06.744Z,30.77
2017-12-19T04:50:34.438Z,30.55
2017-12-19T04:53:01.341Z,27.73
2017-12-19T04:55:28.271Z,31.42
2017-12-19T04:57:55.955Z,34.78
2017-12-19T05:00:22.880Z,28.73
2017-12-19T05:02:50.636Z,23.08
2017-12-19T05:05:18.333Z,33.78
2017-12-19T05:07:45.238Z,26.40
2017-12-19T05:10:12.186Z,43.92
2017-12-19T05:12:40.009Z,23.50
2017-12-19T05:15:07.697Z,29.67
2017-12-19T05:17:34.600Z,30.40
2017-12-19T05:20:02.289Z,21.77
2017-12-19T05:22:29.204Z,29.25
2017-12-19T05:24:56.124Z,28.60
2017-12-19T05:27:23.038Z,27.27
2017-12-19T05:29:49.988Z,31.55
2017-12-19T05:32:16.913Z,27.55
2017-12-19T05:34:43.856Z,31.02
2017-12-19T05:37:10.786Z,19.52
2017-12-19T05:39:37.705Z,27.37
2017-12-19T05:42:04.610Z,20.75
2017-12-19T05:44:31.545Z,31.20
2017-12-19T05:46:58.448Z,28.98
2017-12-19T05:49:25.347Z,32.47
2017-12-19T05:51:52.269Z,18.40
2017-12-19T05:54:19.181Z,21.77
2017-12-19T05:56:46.116Z,18.98
2017-12-19T05:59:13.024Z,16.10
2017-12-19T06:01:40.714Z,14.57
2017-12-19T06:04:07.620Z,36.13
2017-12-19T06:06:34.545Z,14.00
2017-12-19T06:09:01.452Z,23.42
2017-12-19T06:11:28.368Z,20.65
2017-12-19T06:13:56.049Z,16.30
2017-12-19T06:16:22.970Z,17.95
2017-12-19T06:18:50.644Z,16.73
2017-12-19T06:21:18.333Z,16.73
2017-12-19T06:23:45.249Z,17.33
2017-12-19T06:26:13.094Z,22.15
2017-12-19T06:28:40.006Z,19.48
2017-12-19T06:31:06.928Z,14.05
2017-12-19T06:33:33.841Z,22.90
2017-12-19T06:36:00.769Z,25.33
2017-12-19T06:38:27.683Z,27.83
2017-12-19T06:40:55.573Z,18.35
2017-12-19T06:43:23.252Z,27.90
2017-12-19T06:45:50.168Z,17.98
2017-12-19T06:48:17.068Z,17.30
2017-12-19T06:50:44.001Z,15.38
2017-12-19T06:53:10.917Z,14.77
2017-12-19T06:55:37.831Z,17.40
2017-12-19T06:58:05.514Z,20.77
2017-12-19T07:00:32.436Z,9.48
2017-12-19T07:03:00.116Z,28.67
2017-12-19T07:05:27.044Z,29.58
2017-12-19T07:07:54.712Z,26.08
2017-12-19T07:10:21.623Z,12.35
2017-12-19T07:12:48.540Z,24.77
2017-12-19T07:15:15.473Z,10.45
2017-12-19T07:17:42.390Z,22.87
2017-12-19T07:20:09.292Z,20.90
2017-12-19T07:22:36.210Z,20.23
2017-12-19T07:25:03.113Z,18.73
2017-12-19T07:27:30.804Z,27.73
2017-12-19T07:29:57.720Z,25.15
2017-12-19T07:32:24.660Z,17.37
2017-12-19T07:34:51.571Z,22.73
2017-12-19T07:37:18.499Z,22.52
2017-12-19T07:39:46.159Z,9.82
2017-12-19T07:42:13.086Z,18.00
2017-12-19T07:44:40.758Z,24.63
2017-12-19T07:47:07.676Z,28.55
2017-12-19T07:49:34.598Z,14.65
2017-12-19T07:52:03.116Z,24.37
2017-12-19T07:54:30.857Z,22.02
2017-12-19T07:56:57.741Z,14.80
2017-12-19T07:59:24.652Z,20.40
2017-12-19T08:01:53.356Z,16.30
2017-12-19T08:04:21.116Z,18.90
2017-12-19T08:06:48.029Z,14.25
2017-12-19T08:09:14.959Z,27.50
2017-12-19T08:11:41.919Z,16.65
2017-12-19T08:14:08.916Z,14.85
2017-12-19T08:16:35.865Z,23.20
2017-12-19T08:19:02.828Z,12.48
2017-12-19T08:21:29.748Z,23.25
2017-12-19T08:23:56.676Z,20.20
2017-12-19T08:26:24.346Z,21.30
2017-12-19T08:28:51.265Z,18.40
2017-12-19T08:31:18.177Z,12.75
2017-12-19T08:33:45.097Z,21.02
2017-12-19T08:36:12.005Z,19.23
2017-12-19T08:38:39.906Z,17.75
2017-12-19T08:41:06.821Z,13.35
2017-12-19T08:43:34.510Z,11.95
2017-12-19T08:46:01.420Z,16.12
2017-12-19T08:48:29.103Z,14.87
2017-12-19T08:50:56.009Z,13.07
2017-12-19T08:53:22.929Z,19.25
2017-12-19T08:55:49.836Z,12.52
2017-12-19T08:58:16.777Z,17.95
2017-12-19T09:00:43.680Z,18.23
2017-12-19T09:03:10.622Z,25.45
2017-12-19T09:05:37.520Z,14.20
2017-12-19T09:08:04.439Z,20.20
2017-12-19T09:10:31.345Z,17.10
2017-12-19T09:12:58.260Z,14.82
2017-12-19T09:15:25.158Z,14.32
2017-12-19T09:17:52.081Z,19.62
2017-12-19T09:20:18.984Z,19.42
2017-12-19T09:22:45.917Z,25.80
2017-12-19T09:25:13.784Z,27.30
2017-12-19T09:27:40.709Z,21.77
2017-12-19T09:30:08.396Z,27.83
2017-12-19T09:32:35.345Z,16.98
2017-12-19T09:35:02.278Z,18.20
2017-12-19T09:37:29.964Z,29.15
2017-12-19T09:39:56.866Z,34.13
2017-12-19T09:42:23.780Z,27.08
2017-12-19T09:44:50.682Z,29.73
2017-12-19T09:47:17.576Z,26.83
2017-12-19T09:49:44.505Z,21.15
2017-12-19T09:52:11.409Z,30.10
2017-12-19T09:54:38.345Z,38.97
2017-12-19T09:57:06.017Z,27.83
2017-12-19T09:59:32.935Z,32.03
2017-12-19T10:02:00.608Z,23.15
2017-12-19T10:04:28.293Z,31.23
2017-12-19T10:06:55.204Z,31.35
2017-12-19T10:09:22.892Z,31.48
2017-12-19T10:11:49.808Z,17.42
2017-12-19T10:14:16.757Z,35.97
2017-12-19T10:16:44.464Z,40.63
2017-12-19T10:19:11.380Z,29.75
2017-12-19T10:21:39.054Z,17.37
2017-12-19T10:24:05.984Z,21.37
2017-12-19T10:26:33.684Z,25.08
2017-12-19T10:29:00.597Z,28.98
2017-12-19T10:31:27.505Z,20.27
2017-12-19T10:33:54.441Z,35.47
2017-12-19T10:36:22.140Z,29.87
2017-12-19T10:38:49.045Z,24.92
2017-12-19T10:41:15.957Z,31.00
2017-12-19T10:43:42.880Z,34.15
2017-12-19T10:46:09.789Z,33.70
2017-12-19T10:48:43.311Z,34.08
2017-12-19T10:51:10.213Z,34.33
2017-12-19T10:53:37.144Z,20.98
2017-12-19T10:56:04.073Z,28.85
2017-12-19T10:58:31.010Z,23.87
2017-12-19T11:00:57.921Z,18.70
2017-12-19T11:03:25.615Z,25.75
2017-12-19T11:05:52.529Z,27.98
2017-12-19T11:08:20.217Z,14.85
2017-12-19T11:10:47.134Z,35.90
2017-12-19T11:13:14.833Z,27.83
2017-12-19T11:15:41.737Z,26.12
2017-12-19T11:18:08.644Z,38.65
2017-12-19T11:20:35.568Z,22.10
2017-12-19T11:23:03.516Z,19.67
2017-12-19T11:25:30.442Z,29.50
2017-12-19T11:27:58.117Z,32.83
2017-12-19T11:30:25.806Z,31.60
2017-12-19T11:32:52.717Z,26.00
2017-12-19T11:35:20.412Z,25.10
2017-12-19T11:37:47.333Z,16.98
2017-12-19T11:40:14.301Z,15.27
2017-12-19T11:42:41.232Z,31.75
2017-12-19T11:45:08.169Z,16.87
2017-12-19T11:47:35.866Z,16.20
2017-12-19T11:50:02.814Z,22.55
2017-12-19T11:52:29.731Z,14.68
2017-12-19T11:54:56.661Z,12.68
2017-12-19T11:57:23.576Z,10.90
2017-12-19T11:59:50.509Z,12.63
2017-12-19T12:02:17.425Z,13.05
2017-12-19T12:04:44.364Z,17.15
2017-12-19T12:07:11.272Z,12.25
2017-12-19T12:09:38.977Z,9.05
2017-12-19T12:12:05.888Z,9.70
2017-12-19T12:14:33.577Z,9.20
2017-12-19T12:17:00.493Z,10.27
2017-12-19T12:19:28.189Z,13.90
2017-12-19T12:21:55.097Z,11.25
2017-12-19T12:24:22.800Z,14.13
2017-12-19T12:26:49.712Z,8.77
2017-12-19T12:29:16.639Z,9.32
2017-12-19T12:31:44.317Z,16.37
2017-12-19T12:34:12.040Z,17.73
2017-12-19T12:36:39.024Z,23.83
2017-12-19T12:39:06.884Z,14.70
2017-12-19T12:41:38.062Z,11.43
2017-12-19T12:44:05.001Z,6.80
2017-12-19T12:46:31.913Z,12.57
2017-12-19T12:48:59.601Z,18.15
2017-12-19T12:51:26.501Z,14.77
2017-12-19T12:53:53.418Z,11.88
2017-12-19T12:56:20.784Z,12.60
2017-12-19T12:58:47.729Z,18.87
2017-12-19T13:01:14.649Z,18.37
2017-12-19T13:03:41.597Z,16.73
2017-12-19T13:06:08.517Z,22.58
2017-12-19T13:08:35.444Z,15.70
2017-12-19T13:11:02.364Z,14.43
2017-12-19T13:13:29.268Z,17.10
2017-12-19T13:15:57.136Z,18.85
2017-12-19T13:18:24.206Z,22.45
2017-12-19T13:20:51.193Z,19.58
2017-12-19T13:23:18.112Z,10.60
2017-12-19T13:25:45.060Z,11.52
2017-12-19T13:28:12.127Z,8.57
2017-12-19T13:30:39.045Z,9.05
2017-12-19T13:33:06.976Z,13.75
2017-12-19T13:35:34.676Z,13.35
2017-12-19T13:38:01.653Z,10.40
2017-12-19T13:40:28.613Z,10.88
2017-12-19T13:42:57.309Z,7.03
2017-12-19T13:45:25.004Z,13.15
2017-12-19T13:47:51.952Z,9.77
2017-12-19T13:50:19.793Z,15.40
2017-12-19T13:52:46.704Z,15.98
2017-12-19T13:55:13.629Z,18.85
2017-12-19T13:57:40.601Z,23.42
2017-12-19T14:00:07.535Z,24.52
2017-12-19T14:02:34.452Z,11.00
2017-12-19T14:05:02.246Z,15.15
2017-12-19T14:07:29.160Z,9.80
2017-12-19T14:09:56.881Z,11.90
2017-12-19T14:12:23.799Z,16.00
2017-12-19T14:14:50.857Z,15.77
2017-12-19T14:17:17.828Z,11.07
2017-12-19T14:19:44.777Z,27.27
2017-12-19T14:22:11.733Z,14.52
2017-12-19T14:24:38.663Z,11.32
2017-12-19T14:27:05.580Z,21.80
2017-12-19T14:29:32.504Z,16.50
2017-12-19T14:31:59.420Z,13.30
2017-12-19T14:34:26.354Z,17.23
2017-12-19T14:36:53.282Z,19.45
2017-12-19T14:39:20.208Z,16.20
2017-12-19T14:41:47.116Z,11.48
2017-12-19T14:44:14.804Z,12.10
2017-12-19T14:46:41.844Z,26.25
2017-12-19T14:49:08.762Z,18.48
2017-12-19T14:51:36.466Z,15.18
2017-12-19T14:54:03.377Z,14.93
2017-12-19T14:56:30.301Z,8.57
2017-12-19T14:58:57.225Z,31.48
2017-12-19T15:01:24.142Z,24.63
2017-12-19T15:03:51.070Z,16.15
2017-12-19T15:06:17.997Z,19.55
2017-12-19T15:08:45.710Z,14.10
2017-12-19T15:11:12.624Z,17.73
2017-12-19T15:13:39.560Z,10.55
2017-12-19T15:16:06.465Z,17.55
2017-12-19T15:18:33.381Z,24.63
2017-12-19T15:21:00.323Z,18.35
2017-12-19T15:23:28.001Z,14.77
2017-12-19T15:25:54.949Z,17.67
2017-12-19T15:28:21.875Z,11.73
2017-12-19T15:30:50.569Z,12.40
2017-12-19T15:33:17.497Z,20.92
2017-12-19T15:35:44.468Z,19.02
2017-12-19T15:38:11.355Z,20.92
2017-12-19T15:40:38.293Z,12.57
2017-12-19T15:43:05.236Z,11.43
2017-12-19T15:45:34.115Z,19.35
2017-12-19T15:48:04.636Z,14.45
2017-12-19T15:50:32.533Z,20.20
2017-12-19T15:52:59.483Z,20.42
2017-12-19T15:55:26.460Z,16.80
2017-12-19T15:57:53.692Z,14.55
2017-12-19T16:00:20.633Z,26.95
2017-12-19T16:02:47.561Z,10.55
2017-12-19T16:05:14.497Z,10.00
2017-12-19T16:07:42.181Z,11.73
2017-12-19T16:10:09.108Z,10.75
2017-12-19T16:12:36.041Z,16.25
2017-12-19T16:15:03.734Z,23.48
2017-12-19T16:17:30.866Z,19.60
2017-12-19T16:19:57.817Z,10.10
2017-12-19T16:22:24.767Z,10.48
2017-12-19T16:24:51.674Z,23.08
2017-12-19T16:27:19.383Z,12.37
2017-12-19T16:29:46.313Z,15.00
2017-12-19T16:32:13.306Z,26.20
2017-12-19T16:34:40.271Z,16.50
2017-12-19T16:37:07.206Z,21.55
2017-12-19T16:39:34.153Z,10.80
2017-12-19T16:42:01.128Z,20.27
2017-12-19T16:44:28.842Z,19.15
2017-12-19T16:46:55.753Z,49.95
2017-12-19T16:49:23.453Z,22.50
2017-12-19T16:51:50.403Z,29.73
2017-12-19T16:54:17.332Z,18.12
2017-12-19T16:56:44.242Z,31.25
2017-12-19T16:59:11.164Z,18.73
2017-12-19T17:01:38.082Z,13.88
2017-12-19T17:04:05.018Z,30.45
2017-12-19T17:06:31.936Z,16.00
2017-12-19T17:08:58.860Z,26.20
2017-12-19T17:11:25.804Z,15.05
2017-12-19T17:13:52.726Z,17.40
2017-12-19T17:16:20.404Z,18.05
2017-12-19T17:18:48.096Z,16.05
2017-12-19T17:21:15.236Z,16.75
2017-12-19T17:23:42.892Z,12.13
2017-12-19T17:26:09.807Z,19.48
2017-12-19T17:28:37.521Z,15.27
2017-12-19T17:31:04.452Z,21.58
2017-12-19T17:33:31.377Z,15.45
2017-12-19T17:35:58.436Z,17.73
2017-12-19T17:38:25.401Z,18.50
2017-12-19T17:40:52.339Z,21.75
2017-12-19T17:43:19.264Z,18.23
2017-12-19T17:45:46.180Z,18.10
2017-12-19T17:48:13.129Z,16.17
2017-12-19T17:50:41.974Z,17.77
2017-12-19T17:53:08.910Z,22.55
2017-12-19T17:55:36.764Z,13.95
2017-12-19T17:58:03.705Z,23.17
2017-12-19T18:00:30.614Z,16.60
2017-12-19T18:02:58.406Z,21.58
2017-12-19T18:05:25.332Z,17.35
2017-12-19T18:07:53.201Z,15.27
2017-12-19T18:10:20.127Z,13.40
2017-12-19T18:12:47.819Z,19.33
2017-12-19T18:15:14.944Z,15.05
2017-12-19T18:17:42.625Z,13.73
2017-12-19T18:20:10.546Z,11.63
2017-12-19T18:22:37.455Z,18.42
2017-12-19T18:25:09.868Z,18.90
2017-12-19T18:27:36.807Z,19.98
2017-12-19T18:30:03.765Z,16.85
2017-12-19T18:32:30.732Z,16.15
2017-12-19T18:34:58.476Z,28.67
2017-12-19T18:37:30.497Z,15.07
2017-12-19T18:39:57.434Z,22.30
2017-12-19T18:42:24.353Z,26.27
2017-12-19T18:44:51.306Z,14.30
2017-12-19T18:47:18.268Z,19.20
2017-12-19T18:49:45.231Z,18.92
2017-12-19T18:52:12.176Z,19.55
2017-12-19T18:54:39.265Z,17.80
2017-12-19T18:57:06.944Z,15.15
2017-12-19T18:59:34.654Z,20.02
2017-12-19T19:02:04.735Z,25.25
2017-12-19T19:04:31.778Z,32.60
2017-12-19T19:06:58.698Z,29.65
2017-12-19T19:09:26.428Z,47.92
2017-12-19T19:11:53.367Z,27.00
2017-12-19T19:14:20.328Z,34.70
2017-12-19T19:16:47.244Z,35.05
2017-12-19T19:19:14.205Z,34.17
2017-12-19T19:21:41.180Z,42.85
2017-12-19T19:24:08.120Z,42.30
2017-12-19T19:26:38.189Z,46.70
2017-12-19T19:29:05.133Z,45.03
2017-12-19T19:31:35.351Z,41.03
2017-12-19T19:34:03.076Z,47.72
2017-12-19T19:36:30.009Z,43.25
2017-12-19T19:38:57.910Z,43.85
2017-12-19T19:41:24.847Z,61.25
2017-12-19T19:43:53.551Z,40.65
2017-12-19T19:46:20.487Z,44.35
2017-12-19T19:48:48.183Z,49.67
2017-12-19T19:51:24.731Z,44.78
2017-12-19T19:53:51.659Z,49.80
2017-12-19T19:56:18.594Z,48.87
2017-12-19T19:58:45.522Z,47.62
2017-12-19T20:01:13.221Z,52.17
2017-12-19T20:03:40.142Z,44.05
2017-12-19T20:06:07.841Z,43.72
2017-12-19T20:08:34.747Z,43.08
2017-12-19T20:11:02.433Z,47.08
2017-12-19T20:13:29.340Z,39.47
2017-12-19T20:15:56.270Z,42.28
2017-12-19T20:18:23.194Z,40.40
2017-12-19T20:20:50.158Z,38.05
2017-12-19T20:23:17.088Z,33.47
2017-12-19T20:25:44.040Z,34.90
2017-12-19T20:28:15.833Z,40.22
2017-12-19T20:30:42.756Z,38.92
2017-12-19T20:33:12.907Z,36.78
2017-12-19T20:35:39.848Z,41.92
2017-12-19T20:38:06.762Z,35.33
2017-12-19T20:40:34.471Z,30.98
2017-12-19T20:43:01.385Z,36.90
2017-12-19T20:45:28.323Z,40.20
2017-12-19T20:47:55.253Z,37.05
2017-12-19T20:50:22.188Z,33.28
2017-12-19T20:52:49.101Z,38.05
2017-12-19T20:55:16.032Z,29.25
2017-12-19T20:57:42.935Z,40.00
2017-12-19T21:00:14.213Z,29.27
2017-12-19T21:02:41.123Z,43.30
2017-12-19T21:05:08.075Z,39.00
2017-12-19T21:07:34.997Z,35.75
2017-12-19T21:10:01.933Z,29.98
2017-12-19T21:12:28.853Z,28.83
2017-12-19T21:14:56.708Z,26.35
2017-12-19T21:17:23.616Z,24.48
2017-12-19T21:19:50.557Z,30.35
2017-12-19T21:22:17.497Z,33.20
2017-12-19T21:24:44.420Z,32.97
2017-12-19T21:27:11.333Z,23.95
2017-12-19T21:29:38.255Z,35.95
2017-12-19T21:32:05.168Z,26.02
2017-12-19T21:34:32.135Z,26.67
2017-12-19T21:36:59.048Z,29.35
2017-12-19T21:39:26.731Z,35.47
2017-12-19T21:41:53.687Z,23.38
2017-12-19T21:44:20.640Z,22.00
2017-12-19T21:46:47.609Z,19.75
2017-12-19T21:49:15.291Z,26.27
2017-12-19T21:51:42.995Z,25.40
2017-12-19T21:54:09.921Z,19.92
2017-12-19T21:56:36.849Z,18.23
2017-12-19T21:59:03.768Z,22.90
2017-12-19T22:01:30.696Z,23.38
2017-12-19T22:03:57.613Z,24.83
2017-12-19T22:06:24.576Z,25.17
2017-12-19T22:08:52.496Z,20.75
2017-12-19T22:11:19.425Z,19.48
2017-12-19T22:13:47.117Z,23.15
2017-12-19T22:16:14.083Z,24.42
2017-12-19T22:18:41.025Z,18.92
2017-12-19T22:21:08.962Z,17.83
2017-12-19T22:23:35.911Z,22.08
2017-12-19T22:26:02.817Z,17.98
2017-12-19T22:28:29.740Z,23.98
2017-12-19T22:30:56.652Z,22.85
2017-12-19T22:33:25.556Z,23.60
2017-12-19T22:35:53.238Z,24.60
2017-12-19T22:38:20.169Z,22.92
2017-12-19T22:40:47.090Z,20.83
2017-12-19T22:43:14.786Z,24.87
2017-12-19T22:45:41.740Z,20.60
2017-12-19T22:48:08.656Z,20.62
2017-12-19T22:50:36.352Z,22.83
2017-12-19T22:53:03.267Z,21.40
2017-12-19T22:55:30.957Z,24.58
2017-12-19T22:57:57.860Z,20.70
2017-12-19T23:00:24.793Z,19.60
2017-12-19T23:02:51.696Z,21.75
2017-12-19T23:05:18.622Z,15.75
2017-12-19T23:07:45.545Z,23.58
2017-12-19T23:10:13.247Z,24.27
2017-12-19T23:12:40.192Z,19.75
2017-12-19T23:15:07.121Z,23.40
2017-12-19T23:17:34.028Z,21.35
2017-12-19T23:20:01.720Z,23.25
2017-12-19T23:22:28.629Z,23.30
2017-12-19T23:24:56.523Z,28.27
2017-12-19T23:27:23.446Z,23.35
2017-12-19T23:29:50.381Z,28.55
2017-12-19T23:32:17.297Z,24.02
2017-12-19T23:34:44.223Z,23.33
2017-12-19T23:37:11.137Z,21.27
2017-12-19T23:39:38.842Z,22.58
2017-12-19T23:42:05.757Z,21.15
2017-12-19T23:44:32.705Z,18.62
2017-12-19T23:46:59.658Z,21.25
2017-12-19T23:49:26.585Z,15.77
2017-12-19T23:51:53.488Z,20.80
2017-12-19T23:54:20.418Z,19.00
2017-12-19T23:56:47.332Z,19.85
2017-12-19T23:59:14.263Z,18.87
